Capitol Logistics 7402

Operating for MZN



KILN
Wilmington Air Park
Wilmington, Ohio
KSEA
Seattle-Tacoma International Airport
Seattle, Washington

Activity Log

Date Flight Route Aircraft Duration
No Flights Yet

Route Details

Aircraft Information
Primary: Boeing 767-300BDSF
Backup: Boeing 757-200SF
Route Data
Distance: 1990nm
Duration: 4h 29m
Recm'd Route: DQN CADIZ ODI J36 GEP J36 MLP GLASR1
Origin Wx: KILN 180254Z AUTO 22004KT 9SM CLR 06/04 A2992 RMK AO2 SLP142 T00560039 51009
Dest. Wx: KSEA 180253Z 32006KT 10SM CLR 22/02 A3014 RMK AO2 SLP211 T02170022 56006
Notes: